Lake Linden, MI

7:03 PM EDT on October 31, 2014 (GMT -0400)
Hubbell (Near Hubbell Haven) | Change Station
CLOSE
Current Station
Personal Weather Station
Location: Hubbell, MI
Elevation: 730 ft
Nearby Weather Stations

Elev 730 ft 47.18 °N, 88.43 °W | Updated 3 seconds ago

Overcast
Overcast
30.9 °F
Feels Like 31 °F
N
1.0
Wind Variable Wind from ENE
Gusts 3.6 mph

Today
High -- | Low -- °F
--% Chance of Precip.
Yesterday
High -- | Low -- °F
Precip. -- in
8:35 AM 6:38 PM
First Quarter, 60% visible
Pressure 30.50 in
Visibility 10.0 miles
Clouds Mostly Cloudy 3100 ft
Windchill 31 °F
Dew Point 23 °F
Humidity 71%
Rainfall 0.05 in
Snow Depth Not available.
UV 0 out of 12
Pollen .10 out of 12
Air Quality Not available.
Flu Activity Not available.
METAR KCMX 312253Z AUTO 35005KT 10SM BKN031 M01/M07 A3045 RMK AO2 SLP326 T10111067

More Conditions Fewer Conditions

Pressure 30.50 in
Visibility 10.0 miles
Clouds Mostly Cloudy 3100 ft
Windchill 31 °F
Dew Point 23 °F
Humidity 71%
Rainfall 0.05 in
Snow Depth Not available.
UV 0 out of 12
Pollen .10 out of 12
Air Quality Not available.
Flu Activity Not available.
METAR KCMX 312253Z AUTO 35005KT 10SM BKN031 M01/M07 A3045 RMK AO2 SLP326 T10111067

More Conditions Fewer Conditions

10-Day Weather Forecast

Almanac

Astronomy

Oct. 31, 2014 Rise Set
Actual Time
Civil Twilight
Nautical Twilight
Astronomical Twilight
Moon
Length of Visible Light
Length of Day
Tomorrow will be .
, % of the Moon is Illuminated

Today's Extremes

State Highs State Lows

Community

WunderPhotos

Upload Photos

1,766,774 photos uploaded!

WunderBlogs® & News

Nearby

Air Quality

  Air Quality AQ Index Pollutant
Not available.

Snow Depth

Station Depth Elevation

Earthquake Activity

City Distance Mag. Time & Date
Minimum magnitude displayed is 2.5.

Coastal Water Temperatures

Place Temperature

Nearby Weather Stations